Time;durP1;ratioP1;P1;durP2;ratioP2;P2;SDS_P1;SDS_P2;PMS_P1;PMS_P2;Temp;Humidity;BMP_temperature;BMP_pressure;BME280_temperature;BME280_humidity;BME280_pressure;Samples;Min_cycle;Max_cycle;Signal;HPM_P1;HPM_P2
2021/03/05 00:02:00;;;;;;;17.73;10.57;;;6.90;94.50;;;;;;5058314;28;20198;-82
2021/03/05 00:04:26;;;;;;;19.33;12.25;;;6.80;93.50;;;;;;5056879;28;20300;-80
2021/03/05 00:06:53;;;;;;;17.77;12.00;;;6.70;92.90;;;;;;5054718;28;20207;-80
2021/03/05 00:09:20;;;;;;;18.75;12.95;;;6.60;91.00;;;;;;5057583;28;20215;-80
2021/03/05 00:11:46;;;;;;;19.75;12.48;;;6.60;91.10;;;;;;5054515;28;20218;-81
2021/03/05 00:14:13;;;;;;;19.63;13.00;;;6.50;91.30;;;;;;5051045;28;20271;-81
2021/03/05 00:16:39;;;;;;;21.63;12.90;;;6.40;91.00;;;;;;5052559;28;20238;-81
2021/03/05 00:19:06;;;;;;;22.80;12.75;;;6.40;90.30;;;;;;5052482;28;20227;-82
2021/03/05 00:21:33;;;;;;;23.77;13.18;;;6.30;90.30;;;;;;5053318;28;20207;-83
2021/03/05 00:24:00;;;;;;;22.98;13.10;;;6.20;89.60;;;;;;5055073;28;20207;-80
2021/03/05 00:26:26;;;;;;;23.48;13.93;;;6.20;90.20;;;;;;5058449;28;20199;-80
2021/03/05 00:28:53;;;;;;;19.27;11.90;;;6.10;90.10;;;;;;5058304;28;20218;-81
2021/03/05 00:31:22;;;;;;;21.73;13.05;;;6.00;90.00;;;;;;5057281;28;20199;-80
2021/03/05 00:33:49;;;;;;;22.10;12.38;;;6.00;90.20;;;;;;5051082;28;20718;-80
2021/03/05 00:36:15;;;;;;;19.35;12.40;;;5.90;90.10;;;;;;5053922;28;20218;-79
2021/03/05 00:38:42;;;;;;;19.67;12.20;;;6.00;90.20;;;;;;5055452;28;20223;-79
2021/03/05 00:41:09;;;;;;;19.35;11.02;;;5.90;88.60;;;;;;5057044;28;20195;-80
2021/03/05 00:43:36;;;;;;;21.52;11.65;;;5.90;86.70;;;;;;5054806;28;20207;-80
2021/03/05 00:46:03;;;;;;;17.45;10.70;;;5.80;86.20;;;;;;5057659;28;20211;-79
2021/03/05 00:48:29;;;;;;;21.52;12.00;;;5.80;84.30;;;;;;5057867;28;20223;-82
2021/03/05 00:50:56;;;;;;;17.80;10.23;;;5.80;82.10;;;;;;5059224;28;20187;-81
2021/03/05 00:53:22;;;;;;;18.23;11.23;;;5.80;81.40;;;;;;5057695;28;20236;-80
2021/03/05 00:55:49;;;;;;;20.08;10.38;;;5.80;80.40;;;;;;5056581;28;20203;-80
2021/03/05 00:58:16;;;;;;;17.13;10.40;;;5.70;80.30;;;;;;5053445;28;20231;-79
2021/03/05 01:00:43;;;;;;;16.88;10.48;;;5.80;79.10;;;;;;5054320;28;20217;-80
2021/03/05 01:03:09;;;;;;;15.80;10.52;;;5.70;79.20;;;;;;5050379;28;20647;-80
2021/03/05 01:05:36;;;;;;;18.40;11.18;;;5.70;79.90;;;;;;5053927;28;20195;-80
2021/03/05 01:08:03;;;;;;;18.35;10.95;;;5.70;80.00;;;;;;5056575;28;20230;-80
2021/03/05 01:10:29;;;;;;;17.02;10.23;;;5.70;80.10;;;;;;5056666;28;20203;-81
2021/03/05 01:12:56;;;;;;;16.00;10.45;;;5.60;80.50;;;;;;5057682;28;20183;-82
2021/03/05 01:15:24;;;;;;;16.88;11.23;;;5.60;81.50;;;;;;5056151;28;20207;-80
2021/03/05 01:17:50;;;;;;;16.23;11.88;;;5.60;81.90;;;;;;5055775;28;20227;-79
2021/03/05 01:20:19;;;;;;;20.92;11.63;;;5.50;76.90;;;;;;5053528;28;20218;-80
2021/03/05 01:22:46;;;;;;;18.08;9.80;;;5.50;75.30;;;;;;5055847;28;20215;-80
2021/03/05 01:25:16;;;;;;;17.10;11.13;;;5.50;73.40;;;;;;5059104;28;20217;-80
2021/03/05 01:27:42;;;;;;;17.83;10.82;;;5.40;73.30;;;;;;5055703;28;20214;-81
2021/03/05 01:30:11;;;;;;;16.40;10.80;;;5.40;73.30;;;;;;5059075;28;20764;-81
2021/03/05 01:32:39;;;;;;;19.55;10.73;;;5.30;72.20;;;;;;5050508;28;20257;-80
2021/03/05 01:35:08;;;;;;;19.05;10.02;;;5.30;71.00;;;;;;5046113;28;20227;-80
2021/03/05 01:37:34;;;;;;;16.90;10.07;;;5.20;70.90;;;;;;5047038;28;20234;-79
2021/03/05 01:40:01;;;;;;;19.88;11.52;;;5.20;70.90;;;;;;5054121;28;20188;-79
2021/03/05 01:42:28;;;;;;;18.05;11.68;;;5.20;70.50;;;;;;5056393;28;20214;-81
2021/03/05 01:44:54;;;;;;;17.83;10.98;;;5.20;70.70;;;;;;5053345;28;20200;-79
2021/03/05 01:47:21;;;;;;;17.98;10.05;;;5.20;71.00;;;;;;5056248;28;20233;-81
2021/03/05 01:49:49;;;;;;;17.77;11.45;;;5.20;70.80;;;;;;5057250;28;20246;-80
2021/03/05 01:52:15;;;;;;;17.90;11.23;;;5.20;71.10;;;;;;5056041;28;20207;-79
2021/03/05 01:54:42;;;;;;;16.77;11.00;;;5.20;71.00;;;;;;5050868;28;20218;-79
2021/03/05 01:57:08;;;;;;;19.00;10.90;;;5.20;69.20;;;;;;5052259;28;20211;-80
2021/03/05 01:59:35;;;;;;;19.35;11.77;;;5.20;68.90;;;;;;5057101;28;20195;-81
2021/03/05 02:02:05;;;;;;;16.45;10.60;;;5.20;69.40;;;;;;5054840;28;20266;-79
2021/03/05 02:04:33;;;;;;;18.05;10.77;;;5.10;68.80;;;;;;5058199;28;20187;-80
2021/03/05 02:07:01;;;;;;;20.52;11.35;;;5.10;69.30;;;;;;5057461;28;20194;-80
2021/03/05 02:09:27;;;;;;;17.42;10.48;;;5.10;68.80;;;;;;5058130;28;20225;-80
2021/03/05 02:11:54;;;;;;;21.95;11.93;;;5.10;69.00;;;;;;5057580;28;20183;-82
2021/03/05 02:14:21;;;;;;;18.08;10.90;;;5.10;68.80;;;;;;5057448;28;20226;-80
2021/03/05 02:16:56;;;;;;;18.13;10.20;;;5.00;68.70;;;;;;5056876;28;20252;-79
2021/03/05 02:19:55;;;;;;;18.00;10.15;;;5.00;69.10;;;;;;5057599;28;20325;-80
2021/03/05 02:23:07;;;;;;;16.73;10.35;;;5.10;69.40;;;;;;5057616;28;20194;-80
2021/03/05 02:26:16;;;;;;;16.98;9.70;;;5.00;68.70;;;;;;5011304;28;20635;-79
2021/03/05 02:29:23;;;;;;;18.30;11.30;;;5.00;68.80;;;;;;5038261;28;20318;-80
2021/03/05 02:31:53;;;;;;;21.17;12.02;;;5.00;68.70;;;;;;5045593;28;20225;-80
2021/03/05 02:34:22;;;;;;;20.42;11.23;;;5.00;68.70;;;;;;5047243;28;20204;-80
2021/03/05 02:36:52;;;;;;;18.75;11.80;;;5.00;68.70;;;;;;5042057;28;20230;-80
2021/03/05 02:39:22;;;;;;;15.70;9.75;;;5.00;69.80;;;;;;5042136;28;20223;-79
2021/03/05 02:41:52;;;;;;;16.63;10.30;;;5.00;69.90;;;;;;5042168;28;20207;-80
2021/03/05 02:44:23;;;;;;;19.85;11.50;;;5.00;68.70;;;;;;5043294;28;20203;-80
2021/03/05 02:46:52;;;;;;;18.60;11.05;;;5.00;68.70;;;;;;5044903;28;20203;-80
2021/03/05 02:49:22;;;;;;;18.70;10.82;;;5.00;69.10;;;;;;5052345;28;20290;-79
2021/03/05 02:51:49;;;;;;;18.85;10.95;;;5.00;69.60;;;;;;5055686;28;20687;-80
2021/03/05 02:54:18;;;;;;;20.70;11.82;;;5.00;70.00;;;;;;5054227;28;20207;-80
2021/03/05 02:56:47;;;;;;;16.98;10.82;;;5.00;69.50;;;;;;5055451;28;20371;-80
2021/03/05 02:59:16;;;;;;;17.80;10.90;;;4.90;68.60;;;;;;5051791;28;20268;-79
2021/03/05 03:01:47;;;;;;;18.92;11.05;;;4.90;68.60;;;;;;5045262;28;20207;-81
2021/03/05 03:04:15;;;;;;;17.98;10.40;;;4.90;68.60;;;;;;5045782;28;20230;-80
2021/03/05 03:06:44;;;;;;;20.17;10.27;;;4.90;68.60;;;;;;5046738;28;20214;-80
2021/03/05 03:09:13;;;;;;;20.55;11.35;;;4.90;69.10;;;;;;5052861;28;20231;-80
2021/03/05 03:11:42;;;;;;;21.73;11.40;;;4.90;68.60;;;;;;5053438;28;20210;-78
2021/03/05 03:14:10;;;;;;;16.20;10.57;;;4.90;68.60;;;;;;5047714;28;20207;-79
2021/03/05 03:16:38;;;;;;;19.23;12.27;;;4.90;69.10;;;;;;5045634;28;20290;-80
2021/03/05 03:19:08;;;;;;;19.77;11.38;;;4.90;68.60;;;;;;5050737;28;20223;-81
2021/03/05 03:21:36;;;;;;;19.95;11.23;;;4.90;68.40;;;;;;5051363;28;20263;-79
2021/03/05 03:24:03;;;;;;;17.27;10.88;;;4.90;68.60;;;;;;5049891;28;20677;-81
2021/03/05 03:26:30;;;;;;;19.30;10.85;;;4.90;68.60;;;;;;5047875;28;20219;-81
2021/03/05 03:28:57;;;;;;;18.08;11.63;;;4.90;68.60;;;;;;5052526;28;20235;-79
2021/03/05 03:31:23;;;;;;;20.35;10.85;;;4.90;68.60;;;;;;5053443;28;20222;-80
2021/03/05 03:33:50;;;;;;;17.50;11.35;;;4.90;69.20;;;;;;5055741;28;20222;-80
2021/03/05 03:36:18;;;;;;;22.13;12.90;;;4.90;69.10;;;;;;5056822;28;20187;-80
2021/03/05 03:38:47;;;;;;;19.85;12.00;;;4.90;68.60;;;;;;5055735;28;20219;-79
2021/03/05 03:41:14;;;;;;;17.17;10.48;;;4.90;68.60;;;;;;5054808;28;20207;-81
2021/03/05 03:43:41;;;;;;;16.20;10.23;;;4.90;68.90;;;;;;5055381;28;20197;-80
2021/03/05 03:46:08;;;;;;;18.02;10.88;;;5.00;68.70;;;;;;5056261;28;20214;-80
2021/03/05 03:48:41;;;;;;;19.05;11.52;;;5.00;68.70;;;;;;5084901;23;20235;-80
2021/03/05 03:54:25;;;;;;;18.00;10.88;;;5.00;69.30;;;;;;4997674;28;20196;-79
2021/03/05 03:57:06;;;;;;;19.75;11.10;;;4.90;69.80;;;;;;4986849;28;20311;-81
2021/03/05 03:59:39;;;;;;;16.63;9.73;;;5.00;69.30;;;;;;4974993;28;20225;-81
2021/03/05 04:02:08;;;;;;;18.88;9.98;;;4.90;69.20;;;;;;4986766;28;20213;-79
2021/03/05 04:04:38;;;;;;;16.27;10.23;;;5.00;68.70;;;;;;4997402;28;20193;-80
2021/03/05 04:07:08;;;;;;;20.50;11.50;;;4.90;68.80;;;;;;4997634;28;20273;-80
2021/03/05 04:09:39;;;;;;;17.25;11.32;;;5.00;69.40;;;;;;4997016;28;20221;-81
2021/03/05 04:12:07;;;;;;;18.38;11.25;;;4.90;69.20;;;;;;4996870;28;20196;-80
2021/03/05 04:14:34;;;;;;;19.80;11.95;;;4.90;69.20;;;;;;4997100;28;20194;-80
2021/03/05 04:17:01;;;;;;;18.20;11.40;;;4.90;69.50;;;;;;4994308;28;20248;-79
2021/03/05 04:19:30;;;;;;;22.58;13.15;;;4.90;70.00;;;;;;4995406;28;20237;-79
2021/03/05 04:21:58;;;;;;;20.58;11.80;;;5.10;70.10;;;;;;4996799;28;20253;-80
2021/03/05 04:24:25;;;;;;;16.80;11.15;;;5.00;69.90;;;;;;4997326;28;20189;-80
2021/03/05 04:26:52;;;;;;;21.33;12.35;;;5.00;69.70;;;;;;4997334;28;20194;-80
2021/03/05 04:29:21;;;;;;;20.45;11.98;;;4.90;69.80;;;;;;4997607;28;20213;-80
2021/03/05 04:31:52;;;;;;;17.13;10.55;;;4.90;70.30;;;;;;4981748;28;20252;-81
2021/03/05 04:34:20;;;;;;;19.58;11.65;;;5.00;70.80;;;;;;4997620;28;20248;-81
2021/03/05 04:36:50;;;;;;;17.25;10.52;;;4.90;70.80;;;;;;4997826;28;20217;-81
2021/03/05 04:39:19;;;;;;;19.23;10.82;;;5.00;71.40;;;;;;4999888;28;20220;-80
2021/03/05 04:41:47;;;;;;;18.48;10.63;;;4.90;71.30;;;;;;5001415;28;20205;-82
2021/03/05 04:44:19;;;;;;;19.85;12.50;;;4.90;71.90;;;;;;5001487;28;20202;-81
2021/03/05 04:46:54;;;;;;;22.02;12.45;;;4.90;72.30;;;;;;5000318;28;20191;-81
2021/03/05 04:49:23;;;;;;;21.83;12.80;;;4.80;72.80;;;;;;4997426;28;20244;-80
2021/03/05 04:51:56;;;;;;;19.30;11.18;;;4.80;72.80;;;;;;5000595;28;20201;-80
2021/03/05 04:54:25;;;;;;;20.73;12.23;;;4.80;72.80;;;;;;5000834;28;20278;-82
2021/03/05 04:56:57;;;;;;;22.30;12.63;;;4.80;72.80;;;;;;5019257;28;20208;-80
2021/03/05 05:08:24;;;;;;;20.63;12.07;;;4.80;73.20;;;;;;5478677;23;20299;-80
2021/03/05 05:14:52;;;;;;;19.52;11.52;;;4.80;74.20;;;;;;4981501;28;20174;-80
2021/03/05 05:17:21;;;;;;;20.52;11.93;;;4.80;75.10;;;;;;4981080;28;20251;-79
2021/03/05 05:19:53;;;;;;;22.08;12.82;;;4.80;75.70;;;;;;4981252;28;20190;-80
2021/03/05 05:22:21;;;;;;;21.55;12.60;;;4.90;76.10;;;;;;5234740;23;20232;-81
2021/03/05 05:24:54;;;;;;;17.60;12.20;;;4.90;75.50;;;;;;5029304;28;20207;-81
2021/03/05 05:27:26;;;;;;;20.17;11.93;;;4.90;75.20;;;;;;5001461;28;20591;-81
2021/03/05 05:29:58;;;;;;;19.42;11.93;;;4.90;74.80;;;;;;5005229;28;20219;-81
2021/03/05 05:32:28;;;;;;;15.48;10.90;;;4.90;75.00;;;;;;5004971;28;20212;-81
2021/03/05 05:35:10;;;;;;;19.98;12.40;;;5.00;75.30;;;;;;5003992;28;20577;-82
2021/03/05 05:37:40;;;;;;;19.52;11.00;;;5.00;74.50;;;;;;5002750;28;20232;-82
2021/03/05 05:40:18;;;;;;;22.35;12.93;;;5.00;73.60;;;;;;5005683;28;20568;-81
2021/03/05 05:42:52;;;;;;;18.60;11.55;;;5.00;73.40;;;;;;5005976;28;20222;-82
2021/03/05 05:48:18;;;;;;;21.90;12.70;;;4.80;72.80;;;;;;4913786;29;20256;-79
2021/03/05 05:50:47;;;;;;;21.75;11.88;;;4.80;74.00;;;;;;4897128;29;20215;-79
2021/03/05 05:53:16;;;;;;;20.10;12.65;;;4.70;74.70;;;;;;4922263;29;20192;-79
2021/03/05 05:55:46;;;;;;;17.85;11.63;;;4.70;75.40;;;;;;4921771;29;20200;-80
2021/03/05 05:58:16;;;;;;;22.35;13.48;;;4.80;75.50;;;;;;4905431;29;20277;-81
2021/03/05 06:00:47;;;;;;;20.58;11.48;;;4.80;75.30;;;;;;4919057;29;20195;-80
2021/03/05 06:03:21;;;;;;;29.60;12.95;;;4.80;75.40;;;;;;4919304;29;20223;-81
2021/03/05 06:05:50;;;;;;;20.50;12.85;;;4.80;75.90;;;;;;4935801;29;20191;-79
2021/03/05 06:08:20;;;;;;;22.27;12.73;;;4.80;75.50;;;;;;4941719;29;20215;-79
2021/03/05 06:10:47;;;;;;;21.40;11.20;;;4.80;75.80;;;;;;4941503;29;20246;-80
2021/03/05 06:13:16;;;;;;;21.02;12.00;;;4.90;75.50;;;;;;4941439;29;20204;-81
2021/03/05 06:16:15;;;;;;;20.38;12.13;;;4.90;77.00;;;;;;4928926;29;20222;-80
2021/03/05 06:18:44;;;;;;;17.77;12.10;;;4.80;75.10;;;;;;4970900;28;20635;-80
2021/03/05 06:21:12;;;;;;;22.08;13.10;;;4.80;74.70;;;;;;5011991;28;20205;-80
2021/03/05 06:23:58;;;;;;;22.35;11.75;;;4.90;74.40;;;;;;5017277;28;20184;-80
2021/03/05 06:26:27;;;;;;;23.38;13.82;;;4.90;74.70;;;;;;5038791;28;20195;-81
2021/03/05 06:29:07;;;;;;;23.40;13.07;;;4.80;75.00;;;;;;5038309;28;20356;-79
2021/03/05 06:31:37;;;;;;;21.52;12.95;;;4.90;75.70;;;;;;5038950;28;20226;-80
2021/03/05 06:34:05;;;;;;;21.85;11.63;;;4.80;75.00;;;;;;5039088;28;20183;-80
2021/03/05 06:36:33;;;;;;;22.00;13.48;;;4.80;75.40;;;;;;5038993;28;20214;-79
2021/03/05 06:39:00;;;;;;;25.83;13.50;;;4.90;76.20;;;;;;5039018;28;20212;-80
2021/03/05 06:41:30;;;;;;;24.95;12.00;;;4.80;77.10;;;;;;5038964;28;20226;-80
2021/03/05 06:47:12;;;;;;;31.80;15.60;;;4.60;81.10;;;;;;5030706;28;20195;-81
2021/03/05 06:49:42;;;;;;;25.85;15.10;;;4.50;84.20;;;;;;5020378;28;20217;-80
2021/03/05 06:52:15;;;;;;;30.13;15.18;;;4.40;85.60;;;;;;5019080;28;20214;-81
2021/03/05 06:55:18;;;;;;;29.55;15.63;;;4.50;87.50;;;;;;5030817;28;20192;-82
2021/03/05 06:58:18;;;;;;;34.78;16.10;;;4.40;89.10;;;;;;5038516;28;20224;-81
2021/03/05 07:01:10;;;;;;;26.02;14.25;;;4.30;90.00;;;;;;5037466;28;20275;-82
2021/03/05 07:04:07;;;;;;;26.70;14.70;;;4.30;90.90;;;;;;5037678;28;20215;-82
2021/03/05 07:59:21;;;;;;;25.40;14.20;;;4.20;91.60;;;;;;4207377;22;21669;-80
2021/03/05 08:01:57;;;;;;;26.02;14.05;;;4.20;91.60;;;;;;5034954;28;20211;-81
2021/03/05 08:04:24;;;;;;;23.52;13.93;;;4.30;90.90;;;;;;5167259;23;20237;-81
2021/03/05 08:07:10;;;;;;;25.10;13.02;;;4.20;89.70;;;;;;5070346;28;20266;-81
2021/03/05 08:09:39;;;;;;;23.15;14.15;;;4.30;89.00;;;;;;5522217;22;20225;-80
2021/03/05 08:12:34;;;;;;;23.45;12.93;;;4.30;89.00;;;;;;5055683;28;20211;-81
2021/03/05 08:27:57;;;;;;;23.08;11.48;;;4.40;84.40;;;;;;5056542;28;20234;-80
2021/03/05 08:34:29;;;;;;;22.27;12.30;;;4.30;84.00;;;;;;4954632;28;20203;-80
2021/03/05 08:36:59;;;;;;;21.98;12.25;;;4.40;85.30;;;;;;4940359;29;20620;-80
2021/03/05 08:39:28;;;;;;;21.35;12.00;;;4.50;85.10;;;;;;4944953;29;20219;-80
2021/03/05 08:42:28;;;;;;;21.30;12.05;;;4.60;84.60;;;;;;4949874;29;20217;-80
2021/03/05 08:45:16;;;;;;;20.25;11.82;;;4.60;82.80;;;;;;4859098;29;20210;-80
2021/03/05 08:47:45;;;;;;;21.35;12.20;;;4.60;83.10;;;;;;4930815;29;20282;-81
2021/03/05 08:50:38;;;;;;;19.85;12.73;;;4.60;82.50;;;;;;4946955;29;20215;-79
2021/03/05 08:53:07;;;;;;;21.02;11.10;;;4.70;81.70;;;;;;4948066;29;20218;-80
2021/03/05 08:55:35;;;;;;;21.17;10.80;;;4.60;80.30;;;;;;4951672;29;20269;-81
2021/03/05 08:58:03;;;;;;;19.92;11.18;;;4.60;81.10;;;;;;4956998;28;20230;-81
2021/03/05 09:00:43;;;;;;;17.70;11.57;;;4.70;81.20;;;;;;4940961;29;20210;-81
2021/03/05 09:03:16;;;;;;;21.42;11.50;;;4.70;81.20;;;;;;4930556;29;20314;-80
2021/03/05 09:05:45;;;;;;;22.70;12.23;;;4.90;80.50;;;;;;4980684;28;20217;-81
2021/03/05 09:08:13;;;;;;;20.08;12.13;;;4.90;78.60;;;;;;4985195;28;20224;-80
2021/03/05 09:10:42;;;;;;;19.15;11.65;;;4.70;81.30;;;;;;5010485;28;20208;-81
2021/03/05 09:13:10;;;;;;;18.08;10.43;;;4.80;81.20;;;;;;5035353;28;20196;-80
2021/03/05 09:15:42;;;;;;;20.45;11.88;;;4.90;78.80;;;;;;5033395;28;20223;-81
2021/03/05 09:18:11;;;;;;;18.85;10.90;;;4.90;76.60;;;;;;5036990;28;20239;-80
2021/03/05 09:20:44;;;;;;;23.25;11.13;;;4.80;76.10;;;;;;5035738;28;20244;-80
2021/03/05 09:23:31;;;;;;;17.83;10.50;;;4.60;76.90;;;;;;5037285;28;20207;-79
2021/03/05 09:26:00;;;;;;;22.70;11.57;;;4.60;77.10;;;;;;5035120;28;20226;-81
2021/03/05 09:28:27;;;;;;;19.25;10.95;;;4.60;79.00;;;;;;5034619;28;20228;-81
2021/03/05 09:30:57;;;;;;;21.48;12.52;;;4.50;81.00;;;;;;5033492;28;20228;-78
2021/03/05 09:33:29;;;;;;;20.52;11.73;;;4.50;82.60;;;;;;5033638;28;20212;-80
2021/03/05 09:36:00;;;;;;;18.75;12.10;;;4.40;84.30;;;;;;5034533;28;20212;-80
2021/03/05 09:38:26;;;;;;;21.58;12.10;;;4.40;85.00;;;;;;5027308;28;20299;-80
2021/03/05 09:49:29;;;;;;;20.77;11.43;;;4.40;85.70;;;;;;5643195;23;20294;-80
2021/03/05 09:51:56;;;;;;;18.52;11.48;;;4.50;85.10;;;;;;5012029;28;20212;-80
2021/03/05 09:54:35;;;;;;;19.52;11.52;;;4.60;84.50;;;;;;5018671;28;20197;-81
2021/03/05 09:57:01;;;;;;;19.45;11.60;;;4.80;81.20;;;;;;5009476;28;20644;-81
2021/03/05 09:59:44;;;;;;;18.92;10.45;;;4.90;78.90;;;;;;5004334;28;20224;-81
2021/03/05 10:04:50;;;;;;;20.77;10.45;;;5.10;73.10;;;;;;5414945;23;20256;-81
2021/03/05 10:07:19;;;;;;;18.52;9.85;;;5.00;73.70;;;;;;5070697;28;20199;-81
2021/03/05 10:09:46;;;;;;;21.10;11.25;;;4.80;75.40;;;;;;5069920;28;20270;-80
2021/03/05 10:12:15;;;;;;;20.05;10.85;;;4.70;75.00;;;;;;5242301;23;20236;-80
2021/03/05 10:14:41;;;;;;;17.73;9.85;;;4.80;76.20;;;;;;5082135;23;20813;-79
2021/03/05 10:17:13;;;;;;;19.38;10.50;;;4.90;73.80;;;;;;5017953;28;20207;-80
2021/03/05 10:19:41;;;;;;;16.30;10.10;;;5.00;73.00;;;;;;5001378;28;20208;-80
2021/03/05 10:22:09;;;;;;;14.80;9.50;;;5.10;73.10;;;;;;4996520;28;20679;-80
2021/03/05 10:24:35;;;;;;;14.82;9.45;;;5.10;71.50;;;;;;4996726;28;20201;-80
2021/03/05 10:27:21;;;;;;;19.13;9.73;;;5.20;68.00;;;;;;5000332;28;20215;-81
2021/03/05 10:29:49;;;;;;;20.15;9.82;;;5.20;67.70;;;;;;5000358;28;20188;-80
2021/03/05 10:34:53;;;;;;;21.23;10.13;;;5.20;64.70;;;;;;5123931;22;20239;-81
2021/03/05 10:37:58;;;;;;;15.32;10.63;;;5.10;65.50;;;;;;5020710;28;20722;-80
2021/03/05 10:40:31;;;;;;;16.48;8.98;;;5.30;64.60;;;;;;5020596;28;20246;-80
2021/03/05 10:43:13;;;;;;;12.65;8.15;;;5.50;64.80;;;;;;5021704;28;20203;-80
2021/03/05 10:46:08;;;;;;;13.38;9.63;;;5.60;61.30;;;;;;5024245;28;20643;-80
2021/03/05 10:48:38;;;;;;;17.17;9.68;;;5.80;61.00;;;;;;5024085;28;20234;-80
2021/03/05 10:57:52;;;;;;;19.08;9.85;;;6.10;58.30;;;;;;5021102;28;20258;-81
2021/03/05 11:00:49;;;;;;;17.92;8.50;;;6.10;56.30;;;;;;4957602;29;20292;-80
2021/03/05 11:03:22;;;;;;;15.90;8.77;;;6.00;56.30;;;;;;4959894;29;20209;-81
2021/03/05 11:05:54;;;;;;;21.08;9.82;;;6.00;56.20;;;;;;4960058;29;20222;-80
2021/03/05 11:08:50;;;;;;;18.98;9.35;;;5.60;57.00;;;;;;4957409;28;20309;-80
2021/03/05 11:11:30;;;;;;;17.63;10.15;;;5.70;58.80;;;;;;4922340;29;20297;-80
2021/03/05 11:14:08;;;;;;;15.45;8.75;;;5.80;57.50;;;;;;4921885;29;20221;-79
2021/03/05 11:16:38;;;;;;;16.05;9.95;;;5.90;56.10;;;;;;4911985;29;20225;-81
2021/03/05 11:19:09;;;;;;;16.15;9.48;;;6.00;56.20;;;;;;4922485;29;20599;-80
2021/03/05 11:25:24;;;;;;;16.80;9.15;;;6.20;54.20;;;;;;4922983;29;20203;-82
2021/03/05 11:27:52;;;;;;;17.13;9.98;;;6.40;54.60;;;;;;4931039;29;20231;-79
2021/03/05 11:30:37;;;;;;;19.08;10.30;;;6.40;54.20;;;;;;4935686;29;20213;-79
2021/03/05 11:35:52;;;;;;;14.10;9.25;;;6.50;53.90;;;;;;4920044;29;20223;-80
2021/03/05 11:53:52;;;;;;;15.48;9.63;;;6.40;55.10;;;;;;5014660;28;20200;-79
2021/03/05 11:56:18;;;;;;;15.68;9.93;;;6.80;54.10;;;;;;5017065;28;20223;-79
2021/03/05 11:58:45;;;;;;;20.23;9.90;;;6.90;52.30;;;;;;5016464;28;20267;-80
2021/03/05 12:01:13;;;;;;;21.65;10.65;;;6.90;51.40;;;;;;5015259;28;20276;-81
2021/03/05 12:03:41;;;;;;;17.20;10.18;;;7.00;51.60;;;;;;5013544;28;20213;-80
2021/03/05 12:06:10;;;;;;;14.88;9.35;;;6.90;51.60;;;;;;5016349;28;20196;-81
2021/03/05 12:08:49;;;;;;;13.60;9.95;;;7.00;51.00;;;;;;5017421;28;20236;-81
2021/03/05 13:01:05;;;;;;;17.55;9.00;;;7.40;48.70;;;;;;5755406;23;20241;-80
2021/03/05 13:04:05;;;;;;;12.00;8.07;;;7.30;47.90;;;;;;5058271;28;20207;-80
2021/03/05 13:06:41;;;;;;;20.27;9.18;;;7.20;47.80;;;;;;5052199;28;20196;-81
2021/03/05 13:09:11;;;;;;;15.45;8.95;;;6.80;49.00;;;;;;5025223;28;20255;-81
2021/03/05 13:11:38;;;;;;;17.45;8.82;;;6.60;50.10;;;;;;5024298;28;20214;-80
2021/03/05 13:20:43;;;;;;;16.08;8.15;;;6.50;50.90;;;;;;4978087;29;20182;-79
2021/03/05 13:23:24;;;;;;;12.85;8.15;;;6.50;50.30;;;;;;4977153;29;20209;-80
2021/03/05 13:32:36;;;;;;;13.35;7.78;;;7.40;48.00;;;;;;4834162;29;20299;-79
2021/03/05 13:35:18;;;;;;;14.77;8.98;;;7.70;48.20;;;;;;4850070;29;20213;-80
2021/03/05 13:37:49;;;;;;;13.77;7.45;;;7.20;47.80;;;;;;4853361;29;20233;-79
2021/03/05 13:40:24;;;;;;;12.57;8.32;;;6.90;48.40;;;;;;4833085;29;20590;-80
2021/03/05 13:43:01;;;;;;;14.88;9.02;;;6.90;48.60;;;;;;4861057;29;20209;-80
2021/03/05 13:48:45;;;;;;;10.23;7.63;;;8.00;48.40;;;;;;4846937;29;20267;-79
2021/03/05 13:55:09;;;;;;;12.50;8.18;;;8.60;43.40;;;;;;4808309;29;20264;-80
2021/03/05 13:57:43;;;;;;;10.98;8.00;;;7.90;44.40;;;;;;4864036;29;20236;-79
2021/03/05 14:00:37;;;;;;;11.07;7.80;;;7.80;45.00;;;;;;4890384;29;20216;-81
2021/03/05 14:17:37;;;;;;;9.57;6.05;;;6.70;47.40;;;;;;4757362;30;20263;-81
2021/03/05 14:24:18;;;;;;;10.40;6.82;;;6.20;50.70;;;;;;4759912;30;20644;-80
2021/03/05 14:33:29;;;;;;;7.45;5.40;;;5.90;53.60;;;;;;4738191;30;20214;-81
2021/03/05 14:36:02;;;;;;;10.55;5.95;;;5.90;54.10;;;;;;4750917;30;20265;-82
2021/03/05 14:38:34;;;;;;;10.40;6.35;;;5.80;54.10;;;;;;4752322;30;20249;-81
2021/03/05 15:07:29;;;;;;;7.65;4.60;;;5.80;51.90;;;;;;5047939;28;20530;-81
2021/03/05 15:10:35;;;;;;;5.88;4.32;;;5.80;52.00;;;;;;5067668;28;20213;-80
2021/03/05 15:15:49;;;;;;;5.60;4.03;;;5.80;51.90;;;;;;4906386;29;20204;-81
2021/03/05 15:18:20;;;;;;;5.95;3.90;;;5.80;50.80;;;;;;4910699;29;20244;-80
2021/03/05 15:23:50;;;;;;;7.00;4.70;;;5.70;50.90;;;;;;4906430;29;21225;-82
2021/03/05 15:26:22;;;;;;;7.60;5.13;;;5.80;51.10;;;;;;4906590;29;20234;-82
2021/03/05 15:29:27;;;;;;;4.65;3.83;;;5.80;51.30;;;;;;4917042;29;20259;-81
2021/03/05 15:31:56;;;;;;;6.22;3.90;;;5.80;51.40;;;;;;4856780;29;20210;-80
2021/03/05 15:34:46;;;;;;;6.32;4.20;;;5.80;51.10;;;;;;4853434;29;20218;-81
2021/03/05 15:41:59;;;;;;;5.80;4.25;;;5.80;51.30;;;;;;4836318;29;20243;-82
2021/03/05 15:44:36;;;;;;;6.32;4.43;;;5.80;51.30;;;;;;4895051;29;20207;-81
2021/03/05 15:47:06;;;;;;;7.72;3.95;;;5.90;51.40;;;;;;4925992;29;20324;-82
2021/03/05 15:49:33;;;;;;;4.90;3.72;;;5.90;51.30;;;;;;4923252;29;20282;-83
2021/03/05 15:52:04;;;;;;;7.03;4.30;;;6.00;51.00;;;;;;4926937;29;20222;-81
2021/03/05 15:54:31;;;;;;;6.00;4.45;;;5.90;50.60;;;;;;4928814;29;20268;-80
2021/03/05 15:57:18;;;;;;;5.70;4.07;;;5.90;50.60;;;;;;4983566;28;20193;-82
2021/03/05 16:02:49;;;;;;;6.25;4.30;;;6.20;51.00;;;;;;4985396;28;20281;-80
2021/03/05 16:05:27;;;;;;;5.60;3.88;;;6.20;51.50;;;;;;4995087;28;20212;-82
2021/03/05 16:07:55;;;;;;;5.82;3.78;;;6.30;50.60;;;;;;4996933;28;20228;-80
2021/03/05 16:10:24;;;;;;;5.95;4.13;;;6.40;50.00;;;;;;4993708;28;20213;-81
2021/03/05 16:30:54;;;;;;;4.95;3.60;;;5.90;51.80;;;;;;5077737;28;20231;-82
2021/03/05 16:33:21;;;;;;;7.15;3.90;;;6.00;51.90;;;;;;5097352;28;20186;-81
2021/03/05 16:35:48;;;;;;;4.22;3.55;;;5.80;51.30;;;;;;5089498;28;20281;-82
2021/03/05 16:38:16;;;;;;;4.97;3.80;;;5.70;51.70;;;;;;5073839;28;20242;-80
2021/03/05 16:40:50;;;;;;;5.15;3.67;;;5.60;52.50;;;;;;5073299;28;20210;-82
2021/03/05 16:44:01;;;;;;;4.28;3.75;;;5.50;53.70;;;;;;5072737;28;20229;-82
2021/03/05 16:47:02;;;;;;;5.07;3.80;;;5.30;55.60;;;;;;5075309;28;20203;-81
2021/03/05 16:56:44;;;;;;;7.65;4.90;;;5.10;55.80;;;;;;4964399;29;20528;-82
2021/03/05 17:00:05;;;;;;;6.30;4.80;;;5.10;55.40;;;;;;4917342;29;20234;-81
2021/03/05 17:02:55;;;;;;;6.50;4.68;;;5.10;56.40;;;;;;4925007;29;20265;-81
2021/03/05 17:05:49;;;;;;;5.72;3.83;;;5.10;56.40;;;;;;4926509;29;20215;-81
2021/03/05 17:08:53;;;;;;;9.52;4.97;;;5.00;56.50;;;;;;4879770;29;20239;-81
2021/03/05 17:11:34;;;;;;;5.28;3.80;;;5.00;56.00;;;;;;4922928;29;20215;-80
2021/03/05 17:14:09;;;;;;;7.10;4.45;;;5.00;55.60;;;;;;4892275;29;20312;-81
2021/03/05 17:19:33;;;;;;;6.10;4.22;;;5.00;55.30;;;;;;4928530;29;20233;-81
2021/03/05 17:22:01;;;;;;;6.63;5.10;;;5.00;56.10;;;;;;4930851;29;20243;-81
2021/03/05 17:24:28;;;;;;;7.05;4.88;;;5.00;55.70;;;;;;4933582;29;20211;-78
2021/03/05 17:27:04;;;;;;;6.18;3.92;;;5.00;55.30;;;;;;4940818;29;20238;-80
2021/03/05 17:29:46;;;;;;;7.45;4.55;;;5.00;56.10;;;;;;4947274;29;20242;-80
2021/03/05 17:32:25;;;;;;;6.38;4.38;;;5.00;56.50;;;;;;4927682;28;20226;-80
2021/03/05 17:34:53;;;;;;;5.82;5.07;;;5.00;55.80;;;;;;4991940;28;20220;-80
2021/03/05 17:37:26;;;;;;;8.50;5.10;;;5.10;55.90;;;;;;4990567;28;20214;-80
2021/03/05 17:40:08;;;;;;;8.50;5.50;;;5.00;55.30;;;;;;4979281;28;20328;-79
2021/03/05 17:43:03;;;;;;;6.05;4.80;;;5.00;56.50;;;;;;4985268;28;20299;-80
2021/03/05 18:07:18;;;;;;;6.90;4.80;;;5.00;57.50;;;;;;5624618;23;20225;-79
2021/03/05 18:09:44;;;;;;;9.00;5.85;;;5.00;57.30;;;;;;5095661;28;20229;-81
2021/03/05 18:12:12;;;;;;;7.97;5.20;;;5.00;57.00;;;;;;5087600;28;20267;-81
2021/03/05 18:14:41;;;;;;;7.72;5.35;;;5.00;56.60;;;;;;5083959;28;20202;-82
2021/03/05 18:20:18;;;;;;;9.65;6.28;;;4.90;55.80;;;;;;5038646;28;20239;-81
2021/03/05 18:22:50;;;;;;;10.25;6.57;;;4.90;55.90;;;;;;4993909;28;20263;-81
2021/03/05 18:25:17;;;;;;;9.73;5.95;;;4.90;55.20;;;;;;5050189;28;20214;-81
2021/03/05 18:27:48;;;;;;;9.45;5.18;;;4.90;55.90;;;;;;5051189;28;20265;-81
2021/03/05 18:30:17;;;;;;;7.20;5.15;;;4.90;55.40;;;;;;5051343;28;20199;-83
2021/03/05 18:32:46;;;;;;;7.18;5.68;;;4.90;55.20;;;;;;5051392;28;20249;-80
2021/03/05 18:35:21;;;;;;;8.40;5.70;;;4.80;55.40;;;;;;5049788;28;20745;-81